Terminal Aerodrome Forecast
Issued by NWS Wilmington, OH

Current Version | Previous Version | Text Only | Print | Product List | Glossary Off
Versions: 1 2 3 4 5 6 7 8 9 10 11 12 13 14 15 16 17

000
FTUS41 KILN 192046 AAA
TAFDAY
TAF AMD
KDAY 192046Z 1921/2018 26013G22KT P6SM VCTS BKN050CB
      TEMPO 1921/1922 31025G27KT 1SM -TSRA OVC028CB
     FM200000 26010KT P6SM VCSH BKN080
     FM200300 25008KT P6SM FEW080=

USA.gov is the U.S. government's official web portal to all federal, state and local government web resources and services.